| time (UTC) | temp C | wind direction | speed KPH | gust KPH | rain 1hr cm | rain 24hr cm | rain mn cm | humidity % | barometer mb |
| 20260510222503 | 13 | 286 | 14.5 | 24.1 | 0.00 | 0.08 | 0.08 | 53 | 1013.2 |
| 20260510222003 | 13 | 266 | 11.3 | 19.3 | 0.00 | 0.08 | 0.08 | 53 | 1013.2 |
| 20260510221503 | 13 | 268 | 11.3 | 20.9 | 0.00 | 0.08 | 0.08 | 54 | 1013.1 |
| 20260510221003 | 13 | 273 | 8.0 | 22.5 | 0.00 | 0.08 | 0.08 | 54 | 1013.0 |
| 20260510220504 | 13 | 271 | 12.9 | 22.5 | 0.00 | 0.08 | 0.08 | 53 | 1012.9 |
| 20260510220004 | 13 | 274 | 11.3 | 22.5 | 0.00 | 0.08 | 0.08 | 53 | 1012.8 |
| 20260510214504 | 15 | 283 | 11.3 | 24.1 | 0.00 | 0.08 | 0.08 | 51 | 1012.7 |
| 20260510214003 | 15 | 291 | 9.7 | 20.9 | 0.00 | 0.08 | 0.08 | 52 | 1012.6 |
| 20260510213502 | 15 | 267 | 14.5 | 27.4 | 0.00 | 0.08 | 0.08 | 51 | 1012.5 |
| 20260510213004 | 15 | 281 | 11.3 | 24.1 | 0.00 | 0.08 | 0.08 | 47 | 1012.4 |
| 20260510212503 | 15 | 280 | 20.9 | 32.2 | 0.00 | 0.08 | 0.08 | 46 | 1012.2 |
| 20260510212003 | 15 | 263 | 11.3 | 27.4 | 0.00 | 0.08 | 0.08 | 45 | 1012.1 |
| 20260510211503 | 14 | 245 | 14.5 | 40.2 | 0.00 | 0.08 | 0.08 | 45 | 1012.1 |
| 20260510211003 | 14 | 267 | 19.3 | 32.2 | 0.00 | 0.08 | 0.08 | 44 | 1012.0 |
| 20260510210503 | 14 | 265 | 20.9 | 35.4 | 0.00 | 0.08 | 0.08 | 44 | 1012.0 |
| 20260510210004 | 15 | 264 | 20.9 | 40.2 | 0.00 | 0.08 | 0.08 | 42 | 1011.8 |
| 20260510205504 | 15 | 260 | 12.9 | 24.1 | 0.00 | 0.08 | 0.08 | 42 | 1011.8 |
| 20260510205003 | 16 | 262 | 19.3 | 29.0 | 0.00 | 0.08 | 0.08 | 41 | 1011.6 |
| 20260510204504 | 16 | 256 | 14.5 | 25.7 | 0.00 | 0.08 | 0.08 | 42 | 1011.6 |
| 20260510204003 | 16 | 253 | 16.1 | 24.1 | 0.00 | 0.08 | 0.08 | 40 | 1011.4 |
| 20260510203504 | 16 | 275 | 11.3 | 32.2 | 0.00 | 0.08 | 0.08 | 42 | 1011.4 |
| 20260510203004 | 16 | 251 | 11.3 | 32.2 | 0.00 | 0.08 | 0.08 | 42 | 1011.3 |
| 20260510202503 | 16 | 256 | 12.9 | 25.7 | 0.00 | 0.08 | 0.08 | 43 | 1011.3 |
| 20260510202003 | 16 | 289 | 19.3 | 33.8 | 0.00 | 0.08 | 0.08 | 43 | 1011.3 |
| 20260510201003 | 15 | 255 | 11.3 | 25.7 | 0.00 | 0.08 | 0.08 | 44 | 1011.2 |
| 20260510200503 | 15 | 258 | 12.9 | 24.1 | 0.00 | 0.08 | 0.08 | 45 | 1011.3 |
| 20260510200003 | 15 | 257 | 11.3 | 24.1 | 0.00 | 0.08 | 0.08 | 46 | 1011.3 |
| 20260510195503 | 15 | 255 | 14.5 | 29.0 | 0.00 | 0.08 | 0.08 | 45 | 1011.3 |
| 20260510195004 | 15 | 251 | 12.9 | 29.0 | 0.00 | 0.08 | 0.08 | 46 | 1011.3 |
| 20260510194504 | 15 | 255 | 14.5 | 29.0 | 0.00 | 0.08 | 0.08 | 47 | 1011.4 |
| 20260510194003 | 14 | 253 | 14.5 | 25.7 | 0.00 | 0.08 | 0.08 | 48 | 1011.5 |
| 20260510193003 | 15 | 261 | 14.5 | 32.2 | 0.00 | 0.08 | 0.08 | 47 | 1011.3 |
| 20260510192503 | 15 | 275 | 16.1 | 32.2 | 0.00 | 0.08 | 0.08 | 47 | 1011.3 |
| 20260510191504 | 15 | 254 | 19.3 | 37.0 | 0.00 | 0.08 | 0.08 | 44 | 1011.3 |
| 20260510191004 | 15 | 277 | 14.5 | 25.7 | 0.00 | 0.08 | 0.08 | 48 | 1011.2 |
| 20260510190503 | 15 | 272 | 16.1 | 32.2 | 0.00 | 0.08 | 0.08 | 45 | 1011.1 |
| 20260510185503 | 16 | 268 | 16.1 | 32.2 | 0.00 | 0.08 | 0.08 | 45 | 1011.0 |
| 20260510185003 | 16 | 255 | 16.1 | 32.2 | 0.00 | 0.08 | 0.08 | 45 | 1010.8 |
| 20260510184503 | 16 | 257 | 14.5 | 25.7 | 0.00 | 0.08 | 0.08 | 45 | 1010.8 |
| 20260510184003 | 15 | 268 | 22.5 | 37.0 | 0.00 | 0.08 | 0.08 | 44 | 1010.7 |
| 20260510183503 | 15 | 272 | 14.5 | 29.0 | 0.00 | 0.08 | 0.08 | 46 | 1010.7 |
| 20260510183003 | 15 | 264 | 19.3 | 40.2 | 0.00 | 0.08 | 0.08 | 45 | 1010.5 |
| 20260510182504 | 15 | 281 | 11.3 | 32.2 | 0.00 | 0.08 | 0.08 | 46 | 1010.6 |
| 20260510182003 | 16 | 263 | 19.3 | 38.6 | 0.00 | 0.08 | 0.08 | 45 | 1010.6 |
| 20260510181503 | 16 | 280 | 16.1 | 32.2 | 0.00 | 0.08 | 0.08 | 46 | 1010.5 |
| 20260510181003 | 15 | 264 | 16.1 | 33.8 | 0.00 | 0.08 | 0.08 | 46 | 1010.5 |
| 20260510180503 | 15 | 276 | 8.0 | 25.7 | 0.00 | 0.08 | 0.08 | 48 | 1010.4 |
| 20260510175503 | 15 | 276 | 16.1 | 38.6 | 0.00 | 0.08 | 0.08 | 46 | 1010.4 |
| 20260510175003 | 15 | 271 | 14.5 | 27.4 | 0.00 | 0.08 | 0.08 | 48 | 1010.4 |
| 20260510174503 | 15 | 282 | 14.5 | 24.1 | 0.00 | 0.08 | 0.08 | 48 | 1010.3 |
| 20260510174003 | 15 | 279 | 16.1 | 27.4 | 0.00 | 0.08 | 0.08 | 47 | 1010.3 |
| 20260510173503 | 15 | 276 | 11.3 | 27.4 | 0.00 | 0.08 | 0.08 | 49 | 1010.4 |
| 20260510173004 | 15 | 275 | 17.7 | 29.0 | 0.00 | 0.08 | 0.08 | 49 | 1010.4 |
| 20260510172503 | 15 | 272 | 14.5 | 32.2 | 0.00 | 0.08 | 0.08 | 47 | 1010.3 |
| 20260510172003 | 15 | 270 | 19.3 | 33.8 | 0.00 | 0.08 | 0.08 | 47 | 1010.3 |
| 20260510171003 | 15 | 266 | 16.1 | 35.4 | 0.00 | 0.08 | 0.08 | 46 | 1010.2 |
| 20260510170504 | 16 | 267 | 14.5 | 29.0 | 0.00 | 0.08 | 0.08 | 46 | 1010.2 |
| 20260510170003 | 16 | 260 | 14.5 | 29.0 | 0.00 | 0.08 | 0.08 | 47 | 1010.1 |
| 20260510165503 | 15 | 271 | 9.7 | 32.2 | 0.00 | 0.08 | 0.08 | 46 | 1010.0 |
| 20260510165003 | 15 | 266 | 16.1 | 32.2 | 0.00 | 0.08 | 0.08 | 43 | 1010.1 |
| 20260510164503 | 15 | 259 | 8.0 | 22.5 | 0.00 | 0.08 | 0.08 | 44 | 1010.0 |
| 20260510164003 | 15 | 256 | 17.7 | 32.2 | 0.00 | 0.08 | 0.08 | 42 | 1010.0 |
| 20260510163003 | 15 | 258 | 11.3 | 29.0 | 0.00 | 0.08 | 0.08 | 45 | 1009.8 |
| 20260510162503 | 15 | 244 | 11.3 | 32.2 | 0.00 | 0.08 | 0.08 | 45 | 1009.8 |
| 20260510162003 | 15 | 265 | 14.5 | 27.4 | 0.00 | 0.08 | 0.08 | 46 | 1009.9 |
| 20260510161503 | 15 | 235 | 11.3 | 32.2 | 0.00 | 0.08 | 0.08 | 46 | 1009.9 |
| 20260510161003 | 15 | 273 | 19.3 | 40.2 | 0.00 | 0.08 | 0.08 | 45 | 1009.8 |
| 20260510160503 | 15 | 271 | 17.7 | 29.0 | 0.00 | 0.08 | 0.08 | 44 | 1009.8 |
| 20260510160003 | 15 | 272 | 12.9 | 22.5 | 0.00 | 0.08 | 0.08 | 46 | 1009.7 |
| 20260510155503 | 15 | 259 | 12.9 | 24.1 | 0.00 | 0.08 | 0.08 | 46 | 1009.8 |
| 20260510155003 | 15 | 246 | 9.7 | 27.4 | 0.00 | 0.08 | 0.08 | 47 | 1009.7 |
| 20260510154003 | 15 | 262 | 14.5 | 32.2 | 0.00 | 0.08 | 0.08 | 46 | 1009.6 |
| 20260510153003 | 15 | 268 | 14.5 | 27.4 | 0.00 | 0.08 | 0.08 | 45 | 1009.7 |
| 20260510152504 | 15 | 250 | 16.1 | 32.2 | 0.00 | 0.08 | 0.08 | 47 | 1009.6 |
| 20260510152003 | 15 | 253 | 20.9 | 32.2 | 0.00 | 0.08 | 0.08 | 47 | 1009.6 |
| 20260510151003 | 14 | 264 | 11.3 | 29.0 | 0.00 | 0.08 | 0.08 | 52 | 1009.5 |
| 20260510150503 | 14 | 260 | 11.3 | 25.7 | 0.00 | 0.08 | 0.08 | 53 | 1009.5 |
| 20260510150003 | 14 | 263 | 8.0 | 25.7 | 0.00 | 0.08 | 0.08 | 54 | 1009.5 |
| 20260510145503 | 14 | 266 | 14.5 | 29.0 | 0.00 | 0.08 | 0.08 | 54 | 1009.5 |
| 20260510145003 | 14 | 257 | 11.3 | 24.1 | 0.00 | 0.08 | 0.08 | 55 | 1009.4 |
| 20260510144503 | 13 | 253 | 11.3 | 27.4 | 0.00 | 0.08 | 0.08 | 55 | 1009.5 |
| 20260510144003 | 14 | 257 | 17.7 | 32.2 | 0.00 | 0.08 | 0.08 | 53 | 1009.5 |
| 20260510143503 | 13 | 247 | 9.7 | 25.7 | 0.00 | 0.08 | 0.08 | 56 | 1009.5 |
| 20260510143003 | 14 | 249 | 8.0 | 24.1 | 0.00 | 0.08 | 0.08 | 56 | 1009.5 |
| 20260510142504 | 13 | 240 | 9.7 | 24.1 | 0.00 | 0.08 | 0.08 | 56 | 1009.4 |
| 20260510142004 | 13 | 275 | 9.7 | 32.2 | 0.00 | 0.08 | 0.08 | 57 | 1009.3 |
| 20260510141503 | 13 | 259 | 14.5 | 33.8 | 0.00 | 0.08 | 0.08 | 58 | 1009.3 |
| 20260510141004 | 13 | 246 | 12.9 | 22.5 | 0.00 | 0.08 | 0.08 | 58 | 1009.2 |
| 20260510140003 | 13 | 257 | 11.3 | 25.7 | 0.00 | 0.08 | 0.08 | 57 | 1009.1 |
| 20260510135503 | 13 | 267 | 11.3 | 22.5 | 0.00 | 0.08 | 0.08 | 57 | 1009.2 |
| 20260510134504 | 13 | 252 | 14.5 | 24.1 | 0.00 | 0.08 | 0.08 | 60 | 1009.1 |
| 20260510134004 | 13 | 263 | 9.7 | 22.5 | 0.00 | 0.08 | 0.08 | 62 | 1009.2 |
| 20260510133503 | 13 | 251 | 11.3 | 24.1 | 0.00 | 0.08 | 0.08 | 63 | 1009.1 |
| 20260510132503 | 13 | 266 | 14.5 | 25.7 | 0.00 | 0.08 | 0.08 | 60 | 1009.1 |
| 20260510132004 | 13 | 252 | 12.9 | 22.5 | 0.00 | 0.08 | 0.08 | 63 | 1009.0 |
| 20260510131503 | 13 | 248 | 6.4 | 20.9 | 0.00 | 0.08 | 0.08 | 64 | 1008.9 |
| 20260510131004 | 13 | 260 | 8.0 | 19.3 | 0.00 | 0.08 | 0.08 | 65 | 1009.0 |
| 20260510130503 | 13 | 258 | 11.3 | 24.1 | 0.00 | 0.08 | 0.08 | 65 | 1008.8 |
| 20260510130003 | 13 | 255 | 14.5 | 24.1 | 0.00 | 0.08 | 0.08 | 66 | 1008.7 |
| 20260510125503 | 13 | 246 | 9.7 | 32.2 | 0.00 | 0.08 | 0.08 | 68 | 1008.6 |
| 20260510125004 | 13 | 255 | 11.3 | 27.4 | 0.00 | 0.08 | 0.08 | 68 | 1008.4 |
| 20260510124503 | 13 | 250 | 9.7 | 24.1 | 0.00 | 0.08 | 0.08 | 69 | 1008.5 |
| 20260510123503 | 13 | 256 | 6.4 | 19.3 | 0.00 | 0.08 | 0.08 | 73 | 1008.4 |
| 20260510123003 | 12 | 262 | 17.7 | 32.2 | 0.00 | 0.08 | 0.08 | 73 | 1008.3 |
| 20260510122504 | 12 | 234 | 3.2 | 14.5 | 0.00 | 0.08 | 0.08 | 75 | 1008.3 |
| 20260510121004 | 12 | 289 | 1.6 | 14.5 | 0.00 | 0.08 | 0.08 | 75 | 1008.2 |
| 20260510120503 | 12 | 250 | 4.8 | 19.3 | 0.00 | 0.08 | 0.08 | 75 | 1008.1 |
| 20260510120003 | 11 | 267 | 3.2 | 12.9 | 0.00 | 0.08 | 0.08 | 75 | 1008.0 |
| 20260510115504 | 11 | 250 | 3.2 | 19.3 | 0.00 | 0.08 | 0.08 | 74 | 1008.0 |
| 20260510115003 | 11 | 254 | 4.8 | 19.3 | 0.00 | 0.08 | 0.08 | 75 | 1008.1 |
| 20260510114502 | 11 | 255 | 6.4 | 19.3 | 0.00 | 0.08 | 0.08 | 78 | 1008.0 |
| 20260510114003 | 11 | 260 | 4.8 | 16.1 | 0.00 | 0.08 | 0.08 | 79 | 1007.9 |
| 20260510112503 | 11 | 265 | 1.6 | 9.7 | 0.00 | 0.08 | 0.08 | 83 | 1007.8 |
| 20260510112004 | 11 | 240 | 3.2 | 16.1 | 0.00 | 0.08 | 0.08 | 83 | 1007.8 |
| 20260510111003 | 11 | 220 | 3.2 | 14.5 | 0.00 | 0.08 | 0.08 | 85 | 1007.7 |
| 20260510110503 | 11 | 219 | 3.2 | 12.9 | 0.00 | 0.08 | 0.08 | 86 | 1007.5 |
| 20260510105504 | 11 | 247 | 4.8 | 16.1 | 0.00 | 0.08 | 0.08 | 89 | 1007.6 |
| 20260510105003 | 11 | 238 | 1.6 | 9.7 | 0.00 | 0.08 | 0.08 | 89 | 1007.4 |
| 20260510104503 | 11 | 271 | 1.6 | 11.3 | 0.00 | 0.08 | 0.08 | 90 | 1007.2 |
| 20260510104004 | 10 | 229 | 1.6 | 4.8 | 0.00 | 0.08 | 0.08 | 90 | 1007.0 |
| 20260510103503 | 10 | 242 | 0.0 | 4.8 | 0.00 | 0.08 | 0.08 | 90 | 1007.0 |
| 20260510103003 | 10 | 264 | 0.0 | 3.2 | 0.00 | 0.08 | 0.08 | 91 | 1006.8 |
| 20260510102503 | 10 | 222 | 1.6 | 4.8 | 0.00 | 0.08 | 0.08 | 91 | 1006.9 |
| 20260510101503 | 10 | 243 | 0.0 | 1.6 | 0.00 | 0.08 | 0.08 | 91 | 1006.8 |
| 20260510101004 | 10 | 243 | 0.0 | 4.8 | 0.00 | 0.08 | 0.08 | 91 | 1006.8 |
| 20260510100004 | 10 | 237 | 0.0 | 3.2 | 0.00 | 0.08 | 0.08 | 91 | 1006.8 |
| 20260510095503 | 10 | 239 | 0.0 | 4.8 | 0.00 | 0.08 | 0.08 | 92 | 1006.6 |
| 20260510095004 | 10 | 229 | 0.0 | 3.2 | 0.00 | 0.08 | 0.08 | 91 | 1006.5 |
| 20260510094504 | 10 | 229 | 0.0 | 3.2 | 0.00 | 0.08 | 0.08 | 91 | 1006.4 |
| 20260510094003 | 10 | 182 | 0.0 | 0.0 | 0.00 | 0.08 | 0.08 | 91 | 1006.4 |
| 20260510093503 | 10 | 183 | 0.0 | 0.0 | 0.00 | 0.08 | 0.08 | 91 | 1006.3 |
| 20260510093003 | 10 | 182 | 0.0 | 0.0 | 0.00 | 0.08 | 0.08 | 91 | 1006.2 |
| 20260510092503 | 9 | 182 | 0.0 | 3.2 | 0.00 | 0.08 | 0.08 | 91 | 1006.2 |
| 20260510092003 | 9 | 174 | 0.0 | 0.0 | 0.00 | 0.08 | 0.08 | 91 | 1006.1 |
| 20260510091504 | 9 | 175 | 0.0 | 0.0 | 0.00 | 0.08 | 0.08 | 91 | 1006.0 |
| 20260510091003 | 9 | 175 | 0.0 | 0.0 | 0.00 | 0.08 | 0.08 | 91 | 1006.1 |
| 20260510090503 | 9 | 170 | 0.0 | 0.0 | 0.00 | 0.08 | 0.08 | 91 | 1006.0 |
| 20260510090004 | 9 | 170 | 0.0 | 0.0 | 0.00 | 0.08 | 0.08 | 91 | 1006.0 |
| 20260510085503 | 10 | 170 | 0.0 | 0.0 | 0.00 | 0.08 | 0.08 | 91 | 1006.0 |
| 20260510084505 | 10 | 140 | 0.0 | 0.0 | 0.00 | 0.08 | 0.08 | 91 | 1005.8 |
| 20260510084003 | 10 | 140 | 0.0 | 0.0 | 0.00 | 0.08 | 0.08 | 91 | 1005.7 |
| 20260510083503 | 10 | 140 | 0.0 | 0.0 | 0.00 | 0.08 | 0.08 | 91 | 1005.8 |
| 20260510083003 | 10 | 140 | 0.0 | 0.0 | 0.00 | 0.08 | 0.08 | 91 | 1005.7 |
| 20260510082504 | 10 | 140 | 0.0 | 4.8 | 0.00 | 0.08 | 0.08 | 91 | 1005.7 |
| 20260510082003 | 10 | 139 | 0.0 | 1.6 | 0.00 | 0.08 | 0.08 | 91 | 1005.7 |
| 20260510081504 | 10 | 140 | 1.6 | 12.9 | 0.00 | 0.08 | 0.08 | 91 | 1005.7 |
| 20260510081003 | 10 | 136 | 1.6 | 8.0 | 0.00 | 0.08 | 0.08 | 91 | 1005.6 |
| 20260510075503 | 10 | 133 | 1.6 | 4.8 | 0.00 | 0.08 | 0.08 | 91 | 1005.6 |
| 20260510075003 | 10 | 136 | 0.0 | 9.7 | 0.00 | 0.08 | 0.08 | 91 | 1005.6 |
| 20260510074503 | 10 | 153 | 1.6 | 12.9 | 0.00 | 0.08 | 0.08 | 91 | 1005.6 |
| 20260510073503 | 10 | 136 | 0.0 | 4.8 | 0.00 | 0.08 | 0.08 | 91 | 1005.5 |
| 20260510073004 | 10 | 139 | 1.6 | 4.8 | 0.00 | 0.08 | 0.08 | 91 | 1005.5 |
| 20260510072004 | 10 | 141 | 1.6 | 4.8 | 0.00 | 0.08 | 0.08 | 91 | 1005.5 |
| 20260510071504 | 10 | 144 | 1.6 | 12.9 | 0.00 | 0.08 | 0.08 | 91 | 1005.5 |
| 20260510071003 | 10 | 144 | 3.2 | 12.9 | 0.00 | 0.08 | 0.08 | 91 | 1005.3 |
| 20260510070503 | 10 | 142 | 3.2 | 11.3 | 0.00 | 0.08 | 0.08 | 91 | 1005.3 |
| 20260510070003 | 10 | 126 | 1.6 | 14.5 | 0.00 | 0.08 | 0.08 | 91 | 1005.3 |
| 20260510065503 | 10 | 140 | 4.8 | 16.1 | 0.00 | 0.08 | 0.08 | 91 | 1005.2 |
| 20260510065003 | 10 | 132 | 6.4 | 19.3 | 0.00 | 0.08 | 0.08 | 91 | 1005.2 |
| 20260510064003 | 10 | 130 | 1.6 | 11.3 | 0.03 | 0.08 | 0.08 | 91 | 1005.1 |
| 20260510063503 | 10 | 143 | 3.2 | 12.9 | 0.03 | 0.08 | 0.08 | 91 | 1005.0 |
| 20260510063003 | 10 | 131 | 8.0 | 19.3 | 0.03 | 0.08 | 0.08 | 91 | 1005.1 |
| 20260510062503 | 10 | 132 | 4.8 | 16.1 | 0.05 | 0.08 | 0.08 | 91 | 1005.1 |
| 20260510061503 | 10 | 113 | 4.8 | 14.5 | 0.05 | 0.08 | 0.08 | 91 | 1005.0 |
| 20260510061003 | 10 | 141 | 8.0 | 19.3 | 0.08 | 0.08 | 0.08 | 91 | 1005.1 |
| 20260510060504 | 10 | 148 | 3.2 | 20.9 | 0.08 | 0.08 | 0.08 | 90 | 1005.1 |
| 20260510060004 | 10 | 130 | 1.6 | 8.0 | 0.08 | 0.08 | 0.08 | 90 | 1005.2 |
| 20260510055503 | 10 | 136 | 3.2 | 14.5 | 0.08 | 0.08 | 0.08 | 90 | 1005.3 |
| 20260510055003 | 10 | 145 | 1.6 | 19.3 | 0.08 | 0.08 | 0.08 | 90 | 1005.3 |
| 20260510054003 | 10 | 152 | 1.6 | 8.0 | 0.05 | 0.05 | 0.05 | 90 | 1005.4 |
| 20260510053503 | 10 | 142 | 3.2 | 19.3 | 0.05 | 0.05 | 0.05 | 90 | 1005.4 |
| 20260510053003 | 10 | 144 | 1.6 | 12.9 | 0.05 | 0.05 | 0.05 | 89 | 1005.4 |
| 20260510052503 | 11 | 135 | 3.2 | 12.9 | 0.05 | 0.05 | 0.05 | 89 | 1005.5 |
| 20260510052003 | 11 | 156 | 3.2 | 8.0 | 0.03 | 0.03 | 0.03 | 89 | 1005.5 |
| 20260510051503 | 11 | 167 | 3.2 | 11.3 | 0.03 | 0.03 | 0.03 | 89 | 1005.4 |
| 20260510051004 | 11 | 132 | 3.2 | 14.5 | 0.00 | 0.00 | 0.00 | 88 | 1005.3 |
| 20260510050503 | 11 | 159 | 3.2 | 14.5 | 0.00 | 0.00 | 0.00 | 88 | 1005.3 |
| 20260510050004 | 11 | 132 | 4.8 | 16.1 | 0.00 | 0.00 | 0.00 | 88 | 1005.3 |
| 20260510045503 | 10 | 150 | 3.2 | 16.1 | 0.00 | 0.00 | 0.00 | 87 | 1005.4 |
| 20260510045003 | 10 | 143 | 3.2 | 19.3 | 0.00 | 0.00 | 0.00 | 87 | 1005.2 |
| 20260510044503 | 10 | 151 | 3.2 | 19.3 | 0.00 | 0.00 | 0.00 | 87 | 1005.2 |
| 20260510043503 | 10 | 143 | 3.2 | 19.3 | 0.00 | 0.00 | 0.00 | 87 | 1005.2 |
| 20260510043003 | 10 | 138 | 6.4 | 20.9 | 0.00 | 0.00 | 0.00 | 87 | 1005.2 |
| 20260510042503 | 10 | 165 | 4.8 | 24.1 | 0.00 | 0.00 | 0.00 | 87 | 1005.0 |
| 20260510042003 | 10 | 160 | 6.4 | 22.5 | 0.00 | 0.00 | 0.00 | 86 | 1004.9 |
| 20260510041503 | 10 | 156 | 3.2 | 16.1 | 0.00 | 0.00 | 0.00 | 86 | 1004.7 |
| 20260510041003 | 10 | 141 | 3.2 | 20.9 | 0.00 | 0.00 | 0.00 | 86 | 1004.8 |
| 20260510040503 | 10 | 142 | 8.0 | 33.8 | 0.00 | 0.00 | 0.00 | 86 | 1004.7 |
| 20260510040004 | 10 | 149 | 9.7 | 33.8 | 0.00 | 0.00 | 0.00 | 86 | 1004.8 |
| 20260510035003 | 10 | 133 | 9.7 | 25.7 | 0.00 | 0.00 | 0.00 | 86 | 1004.9 |
| 20260510034503 | 10 | 157 | 4.8 | 19.3 | 0.00 | 0.00 | 0.00 | 86 | 1004.9 |
| 20260510033503 | 10 | 151 | 8.0 | 22.5 | 0.00 | 0.00 | 0.00 | 87 | 1004.9 |
| 20260510033003 | 10 | 158 | 8.0 | 20.9 | 0.00 | 0.00 | 0.00 | 87 | 1005.1 |
| 20260510032503 | 10 | 131 | 9.7 | 32.2 | 0.00 | 0.00 | 0.00 | 87 | 1005.2 |
| 20260510032003 | 10 | 141 | 4.8 | 19.3 | 0.00 | 0.00 | 0.00 | 87 | 1005.1 |
| 20260510031503 | 10 | 130 | 8.0 | 19.3 | 0.00 | 0.00 | 0.00 | 87 | 1005.2 |
| 20260510031003 | 10 | 141 | 8.0 | 19.3 | 0.00 | 0.00 | 0.00 | 87 | 1005.1 |
| 20260510030504 | 10 | 127 | 3.2 | 19.3 | 0.00 | 0.00 | 0.00 | 87 | 1005.1 |
| 20260510030003 | 10 | 139 | 4.8 | 14.5 | 0.00 | 0.00 | 0.00 | 87 | 1005.2 |
| 20260510025003 | 10 | 138 | 8.0 | 19.3 | 0.00 | 0.00 | 0.00 | 87 | 1005.4 |
| 20260510024503 | 10 | 173 | 4.8 | 19.3 | 0.00 | 0.00 | 0.00 | 87 | 1005.5 |
| 20260510024004 | 10 | 140 | 6.4 | 29.0 | 0.00 | 0.00 | 0.00 | 87 | 1005.6 |
| 20260510023003 | 10 | 132 | 4.8 | 16.1 | 0.00 | 0.00 | 0.00 | 87 | 1005.8 |
| 20260510022503 | 10 | 134 | 6.4 | 24.1 | 0.00 | 0.00 | 0.00 | 87 | 1005.8 |
| 20260510022004 | 10 | 130 | 4.8 | 24.1 | 0.00 | 0.00 | 0.00 | 86 | 1006.0 |
| 20260510021003 | 10 | 138 | 4.8 | 22.5 | 0.00 | 0.00 | 0.00 | 86 | 1006.0 |
| 20260510020503 | 10 | 140 | 8.0 | 19.3 | 0.00 | 0.00 | 0.00 | 86 | 1006.1 |
| 20260510020004 | 10 | 128 | 3.2 | 19.3 | 0.00 | 0.00 | 0.00 | 85 | 1006.0 |
| 20260510015003 | 10 | 168 | 3.2 | 19.3 | 0.00 | 0.00 | 0.00 | 85 | 1006.2 |
| 20260510014503 | 10 | 130 | 8.0 | 19.3 | 0.00 | 0.00 | 0.00 | 84 | 1006.2 |
| 20260510014004 | 10 | 154 | 4.8 | 20.9 | 0.00 | 0.00 | 0.00 | 84 | 1006.5 |
| 20260510013003 | 10 | 108 | 3.2 | 22.5 | 0.00 | 0.00 | 0.00 | 83 | 1006.2 |
| 20260510012504 | 10 | 158 | 8.0 | 19.3 | 0.00 | 0.00 | 0.00 | 83 | 1006.3 |
| 20260510011503 | 11 | 151 | 4.8 | 16.1 | 0.00 | 0.00 | 0.00 | 82 | 1006.2 |
| 20260510011004 | 11 | 128 | 6.4 | 19.3 | 0.00 | 0.00 | 0.00 | 82 | 1006.3 |
| 20260510010503 | 11 | 112 | 4.8 | 16.1 | 0.00 | 0.00 | 0.00 | 82 | 1006.2 |
| 20260510010003 | 11 | 134 | 6.4 | 16.1 | 0.00 | 0.00 | 0.00 | 81 | 1006.3 |
| 20260510004504 | 11 | 131 | 9.7 | 19.3 | 0.00 | 0.00 | 0.00 | 80 | 1006.0 |
| 20260510004003 | 11 | 136 | 9.7 | 20.9 | 0.00 | 0.00 | 0.00 | 80 | 1006.0 |
| 20260510003503 | 11 | 124 | 11.3 | 24.1 | 0.00 | 0.00 | 0.00 | 79 | 1006.0 |
| 20260510003004 | 11 | 143 | 8.0 | 20.9 | 0.00 | 0.00 | 0.00 | 79 | 1006.2 |
| 20260510002503 | 11 | 129 | 6.4 | 22.5 | 0.00 | 0.00 | 0.00 | 78 | 1006.1 |
| 20260510002004 | 11 | 126 | 9.7 | 24.1 | 0.00 | 0.00 | 0.00 | 78 | 1006.1 |
| 20260510001503 | 11 | 123 | 8.0 | 24.1 | 0.00 | 0.00 | 0.00 | 77 | 1006.0 |
| 20260510001004 | 12 | 139 | 9.7 | 22.5 | 0.00 | 0.00 | 0.00 | 76 | 1006.0 |
| 20260510000504 | 12 | 138 | 4.8 | 20.9 | 0.00 | 0.00 | 0.00 | 76 | 1006.1 |
| 20260510000003 | 12 | 139 | 4.8 | 22.5 | 0.00 | 0.00 | 0.00 | 75 | 1006.0 |
| 20260509235503 | 12 | 127 | 8.0 | 22.5 | 0.00 | 0.00 | 0.00 | 75 | 1006.0 |
| 20260509235003 | 12 | 139 | 4.8 | 25.7 | 0.00 | 0.00 | 0.00 | 75 | 1005.9 |
| 20260509234003 | 12 | 129 | 6.4 | 16.1 | 0.00 | 0.00 | 0.00 | 74 | 1005.9 |
| 20260509233503 | 12 | 112 | 11.3 | 29.0 | 0.00 | 0.00 | 0.00 | 74 | 1005.9 |
| 20260509232503 | 12 | 117 | 9.7 | 25.7 | 0.00 | 0.00 | 0.00 | 73 | 1005.9 |
| 20260509232004 | 12 | 120 | 8.0 | 27.4 | 0.00 | 0.00 | 0.00 | 72 | 1005.9 |
| 20260509231503 | 13 | 112 | 9.7 | 25.7 | 0.00 | 0.00 | 0.00 | 71 | 1005.9 |
| 20260509231004 | 13 | 113 | 3.2 | 19.3 | 0.00 | 0.00 | 0.00 | 71 | 1006.0 |
| 20260509230503 | 13 | 126 | 8.0 | 29.0 | 0.00 | 0.00 | 0.00 | 70 | 1006.0 |
| 20260509230003 | 13 | 137 | 8.0 | 24.1 | 0.00 | 0.00 | 0.00 | 70 | 1006.1 |
| 20260509225004 | 14 | 131 | 14.5 | 32.2 | 0.00 | 0.00 | 0.00 | 67 | 1006.3 |
| 20260509224503 | 14 | 134 | 3.2 | 33.8 | 0.00 | 0.00 | 0.00 | 68 | 1006.3 |
| 20260509224004 | 14 | 126 | 9.7 | 22.5 | 0.00 | 0.00 | 0.00 | 68 | 1006.2 |
| 20260509223003 | 14 | 124 | 8.0 | 37.0 | 0.00 | 0.00 | 0.00 | 67 | 1006.3 |